Terminal Aerodrome Forecast
Issued by NWS Upton, NY

Home | Current Version | Previous Version | Text Only | Print | Product List | Glossary On
Versions: 1 2 3 4 5 6 7 8 9 10 11 12 13 14 15 16 17 18 19 20 21 22 23 24 25 26 27
000
FTUS41 KOKX 270832 AAA
TAFISP
TAF AMD
KISP 270832Z 2709/2806 VRB05KT P6SM BKN080
      TEMPO 2710/2713 -SHRA BKN050
     FM271400 16006KT P6SM BKN070
     FM271800 18011KT P6SM SCT070 BKN100
     FM272300 24009KT P6SM FEW060 SCT100
     FM280200 29006KT P6SM FEW050=

USA.gov is the U.S. government's official web portal to all federal, state and local government web resources and services.